Scroll down
FLIGHT INFORMATION
American Airlines

AAL861

At Arrival Gate

KORD
 KDFW
DATE: 2020-12-05
GATE: 
GATE DEPARTURE: 00:23
TAKEOFF: 00:43
DATE: 2020-12-05
GATE: A35
LANDING: 02:27
GATE ARRIVAL: 02:37
FLIGHT DATA
Crew: 
Speed: 
501 kts
Altitude: 
40,006 ft
Stage Length: 
697.0 nm
Block Time: 
2.2 hrs
Flight Time: 
1.7 hrs
Fuel Used: 
27,315 lb
Cleared Route: 
TRACK DATA
50,000 ft 1,000 kts
AIRCRAFT INFO AND CUMULATIVE STATS
Aircraft Type: 
B77L
Registration: 
SELCAL: 
MSN/LN: 
0 / 1
Operator: 
Total Flights: 
4
Total Block Time: 
13.8 hrs
Total Flight Time: 
12.4 hrs
Total Fuel Used: 
194,115 lb
DATALINK LOG | Newest first | Current as of: 2022-09-25 17:38:27
LABEL SEQUENCE CONTENT Dn/Up
QD410302:37 19.5▼ Dn
QC295202:27▼ Dn
2U4532KDFW 050053Z COR 16003KT 10SM CLR 09/M02 A3019 RMK AO2 SLP224 T00941017▲ Up
2S4612KDFW▼ Dn
5Z34005 DEC 20 01:32:10z / FLT DECK GOOD / ACF POS GOOD / GRND SERVICES GOOD / MAINT GOOD▼ Dn
GA3310GATE A35▲ Up
GR3259KDFW --:-- MAAS 00 YP/UM 01/02 WCHR/S/C 03/04/05 HI-VAL YES DIPL/VIP NO▼ Dn
463259/OV RZC /TM 0131 /FL400 /TP B772 /TA -56 /WV 286/32 /RM SMOOTH SAILING▼ Dn
QB451300:43▼ Dn
QA245300:23 46.8▼ Dn
5U0646KDFW 050406Z 24004KT 10SM FEW250 09/M02 A3018▲ Up
2U0642KORD 042351Z 01006KT 10SM FEW025 03/M01 A2996 RMK AO2 SLP153 T00281011 10078 20028 51025▲ Up
5S0736KDFW▼ Dn
2S0736KORD▼ Dn
A30443CLEARED TO KDFW VIA ACITO ADELL ARLYN STL RZC FSM RRNET SEEVR4. SQUAWK 2351.▲ Up
Q00332[LINK ACK]▲ Up
Q00332[LINK TEST]▼ Dn


AIRCRAFT HISTORY
FLIGHT DATE FLIGHT NO. ORIGIN DESTINATION CLEARED ROUTE BLOCK TIME FLIGHT TIME FUEL USED PILOT
2020-12-12AAL519KBOS LIRF KBOS CLAWW FENWY SCOAR CELTK LIRF6.4 hrs6.1 hrs101,623 lbChemtrails
2020-12-12AAL519KORD KBOS 2.3 hrs1.9 hrs25,131 lbChemtrails
2020-12-08AAL2796KMIA KORD 3 hrs2.7 hrs40,046 lbDan Downs
2020-12-05AAL861KORD KDFW 2.2 hrs1.7 hrs27,315 lbGeorge